DLH4EF EDDF-EDDH
Flight info
| Callsign | DLH4EF |
|---|---|
| Flight time | 0h 48m |
| Altitude | 33000 |
| Route | MARUN3W/25C MARUN Y150 TOLGI DCT SAS/N0408F320 P605 NOLGO NOLGO6A |
| Aircraft | A21N/M-SDE2E3FGIJ1LORWXYZ/HB1 |
Departure
| Time | 2026-05-06 16:05 |
|---|---|
| Airport | Frankfurt Main Airport (EDDF) |
Arrival
| Time | 2026-05-06 16:54 |
|---|---|
| Airport | Hamburg Helmut Schmidt Airport (EDDH) |
| Time | Latitude | Longitude | Altitude | Speed | Heading |
|---|---|---|---|---|---|
| 2026-05-06 15:22 | 50.04655 | 8.56811 | 367 ft | 0 kts | 295° |
| 2026-05-06 15:53 | 50.04649 | 8.56830 | 366 ft | 4 kts | 295° |
| 2026-05-06 15:53 | 50.04638 | 8.56867 | 365 ft | 2 kts | 295° |
| 2026-05-06 15:53 | 50.04631 | 8.56901 | 361 ft | 4 kts | 266° |
| 2026-05-06 15:53 | 50.04641 | 8.56929 | 362 ft | 4 kts | 206° |
| 2026-05-06 15:54 | 50.04666 | 8.56943 | 361 ft | 4 kts | 202° |
| 2026-05-06 15:54 | 50.04657 | 8.56936 | 368 ft | 4 kts | 204° |
| 2026-05-06 15:54 | 50.04652 | 8.56933 | 365 ft | 0 kts | 204° |
| 2026-05-06 15:58 | 50.04647 | 8.56930 | 367 ft | 2 kts | 204° |
| 2026-05-06 15:58 | 50.04624 | 8.56917 | 366 ft | 5 kts | 192° |
| 2026-05-06 15:58 | 50.04584 | 8.56904 | 364 ft | 8 kts | 192° |
| 2026-05-06 15:59 | 50.04515 | 8.56880 | 364 ft | 11 kts | 192° |
| 2026-05-06 15:59 | 50.04433 | 8.56852 | 368 ft | 14 kts | 192° |
| 2026-05-06 15:59 | 50.04335 | 8.56824 | 365 ft | 10 kts | 189° |
| 2026-05-06 15:59 | 50.04279 | 8.56885 | 365 ft | 13 kts | 95° |
| 2026-05-06 16:00 | 50.04306 | 8.57026 | 366 ft | 15 kts | 70° |
| 2026-05-06 16:00 | 50.04344 | 8.57186 | 369 ft | 17 kts | 70° |
| 2026-05-06 16:00 | 50.04387 | 8.57369 | 369 ft | 19 kts | 70° |
| 2026-05-06 16:00 | 50.04433 | 8.57571 | 371 ft | 21 kts | 70° |
| 2026-05-06 16:01 | 50.04486 | 8.57790 | 372 ft | 22 kts | 68° |
| 2026-05-06 16:01 | 50.04542 | 8.58024 | 372 ft | 24 kts | 70° |
| 2026-05-06 16:01 | 50.04601 | 8.58274 | 373 ft | 23 kts | 69° |
| 2026-05-06 16:01 | 50.04641 | 8.58434 | 374 ft | 0 kts | 68° |
| 2026-05-06 16:02 | 50.04644 | 8.58447 | 374 ft | 3 kts | 68° |
| 2026-05-06 16:02 | 50.04653 | 8.58490 | 374 ft | 6 kts | 83° |
| 2026-05-06 16:02 | 50.04636 | 8.58556 | 374 ft | 8 kts | 141° |
| 2026-05-06 16:02 | 50.04573 | 8.58599 | 375 ft | 11 kts | 158° |
| 2026-05-06 16:03 | 50.04492 | 8.58621 | 376 ft | 14 kts | 229° |
| 2026-05-06 16:03 | 50.04472 | 8.58500 | 375 ft | 0 kts | 242° |
| 2026-05-06 16:05 | 50.04461 | 8.58468 | 375 ft | 20 kts | 242° |
| 2026-05-06 16:05 | 50.04283 | 8.57757 | 371 ft | 121 kts | 252° |
| 2026-05-06 16:05 | 50.03918 | 8.56157 | 672 ft | 171 kts | 251° |
| 2026-05-06 16:05 | 50.03501 | 8.54423 | 1697 ft | 177 kts | 251° |
| 2026-05-06 16:06 | 50.03024 | 8.52556 | 2454 ft | 196 kts | 250° |
| 2026-05-06 16:06 | 50.02534 | 8.50503 | 3261 ft | 206 kts | 248° |
| 2026-05-06 16:06 | 50.01905 | 8.48446 | 4132 ft | 213 kts | 251° |
| 2026-05-06 16:06 | 50.01786 | 8.46248 | 5187 ft | 203 kts | 282° |
| 2026-05-06 16:07 | 50.02411 | 8.44237 | 6034 ft | 210 kts | 300° |
| 2026-05-06 16:07 | 50.03299 | 8.42388 | 6871 ft | 216 kts | 303° |
| 2026-05-06 16:07 | 50.04209 | 8.40517 | 7779 ft | 218 kts | 303° |
| 2026-05-06 16:07 | 50.05198 | 8.38692 | 8683 ft | 225 kts | 318° |
| 2026-05-06 16:08 | 50.06621 | 8.37641 | 9602 ft | 233 kts | 347° |
| 2026-05-06 16:08 | 50.08260 | 8.37329 | 10272 ft | 249 kts | 353° |
| 2026-05-06 16:08 | 50.10020 | 8.37124 | 11003 ft | 257 kts | 353° |
| 2026-05-06 16:08 | 50.11840 | 8.36993 | 11687 ft | 271 kts | 0° |
| 2026-05-06 16:09 | 50.13792 | 8.37307 | 12073 ft | 295 kts | 6° |
| 2026-05-06 16:09 | 50.15913 | 8.37765 | 12432 ft | 318 kts | 6° |
| 2026-05-06 16:09 | 50.18182 | 8.38248 | 12890 ft | 337 kts | 6° |
| 2026-05-06 16:09 | 50.20531 | 8.38739 | 13630 ft | 345 kts | 6° |
| 2026-05-06 16:10 | 50.22928 | 8.39233 | 14403 ft | 348 kts | 6° |
| 2026-05-06 16:10 | 50.24522 | 8.39560 | 14914 ft | 351 kts | 6° |
| 2026-05-06 16:10 | 50.27785 | 8.40231 | 15913 ft | 357 kts | 6° |
| 2026-05-06 16:10 | 50.29408 | 8.40707 | 16396 ft | 361 kts | 14° |
| 2026-05-06 16:11 | 50.31810 | 8.41924 | 17143 ft | 365 kts | 18° |
| 2026-05-06 16:11 | 50.34221 | 8.43261 | 17851 ft | 370 kts | 19° |
| 2026-05-06 16:11 | 50.36656 | 8.44610 | 18500 ft | 375 kts | 18° |
| 2026-05-06 16:11 | 50.39133 | 8.45972 | 19135 ft | 378 kts | 18° |
| 2026-05-06 16:12 | 50.41626 | 8.47338 | 19780 ft | 381 kts | 18° |
| 2026-05-06 16:12 | 50.44144 | 8.48714 | 20424 ft | 384 kts | 18° |
| 2026-05-06 16:12 | 50.46677 | 8.50103 | 21057 ft | 388 kts | 17° |
| 2026-05-06 16:12 | 50.49258 | 8.51395 | 21692 ft | 391 kts | 15° |
| 2026-05-06 16:13 | 50.51868 | 8.52646 | 22329 ft | 393 kts | 15° |
| 2026-05-06 16:13 | 50.54499 | 8.53898 | 22946 ft | 396 kts | 15° |
| 2026-05-06 16:13 | 50.57151 | 8.55159 | 23503 ft | 400 kts | 14° |
| 2026-05-06 16:13 | 50.59797 | 8.56425 | 23879 ft | 406 kts | 14° |
| 2026-05-06 16:14 | 50.62511 | 8.57727 | 24308 ft | 410 kts | 14° |
| 2026-05-06 16:14 | 50.65249 | 8.59043 | 24752 ft | 414 kts | 15° |
| 2026-05-06 16:14 | 50.68021 | 8.60389 | 25196 ft | 417 kts | 15° |
| 2026-05-06 16:14 | 50.70806 | 8.61733 | 25635 ft | 420 kts | 15° |
| 2026-05-06 16:15 | 50.73621 | 8.63087 | 26072 ft | 424 kts | 15° |
| 2026-05-06 16:15 | 50.76453 | 8.64448 | 26508 ft | 427 kts | 15° |
| 2026-05-06 16:15 | 50.79271 | 8.66013 | 26928 ft | 432 kts | 23° |
| 2026-05-06 16:15 | 50.81868 | 8.68307 | 27327 ft | 436 kts | 35° |
| 2026-05-06 16:16 | 50.84183 | 8.71508 | 27726 ft | 438 kts | 48° |
| 2026-05-06 16:16 | 50.86097 | 8.75263 | 28127 ft | 440 kts | 54° |
| 2026-05-06 16:16 | 50.87908 | 8.79113 | 28527 ft | 442 kts | 55° |
| 2026-05-06 16:16 | 50.89742 | 8.83027 | 28910 ft | 444 kts | 54° |
| 2026-05-06 16:17 | 50.91605 | 8.86952 | 29298 ft | 447 kts | 54° |
| 2026-05-06 16:17 | 50.93481 | 8.90888 | 29679 ft | 449 kts | 54° |
| 2026-05-06 16:17 | 50.95364 | 8.94858 | 30011 ft | 452 kts | 55° |
| 2026-05-06 16:17 | 50.97255 | 8.98856 | 30308 ft | 454 kts | 54° |
| 2026-05-06 16:18 | 50.99159 | 9.02877 | 30609 ft | 457 kts | 54° |
| 2026-05-06 16:18 | 51.01057 | 9.06890 | 30852 ft | 461 kts | 54° |
| 2026-05-06 16:18 | 51.03004 | 9.11026 | 31137 ft | 464 kts | 54° |
| 2026-05-06 16:18 | 51.04914 | 9.15071 | 31420 ft | 466 kts | 54° |
| 2026-05-06 16:19 | 51.06873 | 9.19195 | 31707 ft | 468 kts | 54° |
| 2026-05-06 16:19 | 51.08934 | 9.23219 | 31983 ft | 471 kts | 47° |
| 2026-05-06 16:19 | 51.11422 | 9.26595 | 32296 ft | 471 kts | 34° |
| 2026-05-06 16:19 | 51.14307 | 9.29031 | 32642 ft | 469 kts | 20° |
| 2026-05-06 16:20 | 51.17425 | 9.30481 | 32999 ft | 467 kts | 11° |
| 2026-05-06 16:20 | 51.20598 | 9.31574 | 33381 ft | 465 kts | 10° |
| 2026-05-06 16:20 | 51.23763 | 9.32629 | 33771 ft | 464 kts | 10° |
| 2026-05-06 16:20 | 51.26875 | 9.33677 | 34058 ft | 463 kts | 10° |
| 2026-05-06 16:21 | 51.30027 | 9.34752 | 34288 ft | 463 kts | 10° |
| 2026-05-06 16:21 | 51.33194 | 9.35848 | 34505 ft | 464 kts | 10° |
| 2026-05-06 16:21 | 51.36339 | 9.36926 | 34727 ft | 464 kts | 10° |
| 2026-05-06 16:21 | 51.39494 | 9.38014 | 34939 ft | 465 kts | 11° |
| 2026-05-06 16:22 | 51.42660 | 9.39115 | 35145 ft | 465 kts | 11° |
| 2026-05-06 16:22 | 51.45782 | 9.40209 | 35355 ft | 466 kts | 11° |
| 2026-05-06 16:22 | 51.48950 | 9.41320 | 35550 ft | 466 kts | 10° |
| 2026-05-06 16:22 | 51.52109 | 9.42429 | 35746 ft | 466 kts | 11° |
| 2026-05-06 16:23 | 51.58451 | 9.44668 | 35814 ft | 465 kts | 11° |
| 2026-05-06 16:23 | 51.64756 | 9.46927 | 35794 ft | 465 kts | 11° |
| 2026-05-06 16:24 | 51.71067 | 9.49159 | 35792 ft | 464 kts | 10° |
| 2026-05-06 16:24 | 51.77337 | 9.51319 | 35784 ft | 464 kts | 10° |
| 2026-05-06 16:25 | 51.83012 | 9.53567 | 35779 ft | 463 kts | 19° |
| 2026-05-06 16:25 | 51.88784 | 9.58046 | 35788 ft | 459 kts | 26° |
| 2026-05-06 16:26 | 51.91602 | 9.60412 | 35660 ft | 453 kts | 26° |
| 2026-05-06 16:26 | 51.94394 | 9.62753 | 35111 ft | 451 kts | 26° |
| 2026-05-06 16:26 | 51.97196 | 9.65090 | 34124 ft | 459 kts | 26° |
| 2026-05-06 16:26 | 52.00075 | 9.67487 | 33056 ft | 464 kts | 26° |
| 2026-05-06 16:27 | 52.02924 | 9.69858 | 32287 ft | 457 kts | 26° |
| 2026-05-06 16:27 | 52.05686 | 9.72160 | 31585 ft | 448 kts | 26° |
| 2026-05-06 16:27 | 52.08425 | 9.74446 | 30838 ft | 441 kts | 26° |
| 2026-05-06 16:27 | 52.11124 | 9.76698 | 30159 ft | 432 kts | 26° |
| 2026-05-06 16:28 | 52.13786 | 9.78925 | 29265 ft | 426 kts | 26° |
| 2026-05-06 16:28 | 52.16400 | 9.81118 | 28356 ft | 419 kts | 26° |
| 2026-05-06 16:28 | 52.18974 | 9.83286 | 27430 ft | 414 kts | 26° |
| 2026-05-06 16:28 | 52.21519 | 9.85426 | 26522 ft | 410 kts | 26° |
| 2026-05-06 16:29 | 52.24043 | 9.87532 | 25685 ft | 404 kts | 24° |
| 2026-05-06 16:29 | 52.26638 | 9.89157 | 24841 ft | 398 kts | 14° |
| 2026-05-06 16:29 | 52.29300 | 9.90356 | 24060 ft | 393 kts | 13° |
| 2026-05-06 16:29 | 52.31897 | 9.91468 | 23266 ft | 390 kts | 13° |
| 2026-05-06 16:30 | 52.34503 | 9.92587 | 22354 ft | 386 kts | 13° |
| 2026-05-06 16:30 | 52.36128 | 9.93295 | 21794 ft | 383 kts | 14° |
| 2026-05-06 16:30 | 52.39524 | 9.94785 | 20864 ft | 371 kts | 14° |
| 2026-05-06 16:30 | 52.41976 | 9.95857 | 20390 ft | 360 kts | 14° |
| 2026-05-06 16:31 | 52.44379 | 9.96917 | 20013 ft | 355 kts | 14° |
| 2026-05-06 16:31 | 52.46756 | 9.97968 | 19621 ft | 353 kts | 14° |
| 2026-05-06 16:31 | 52.49116 | 9.99012 | 19220 ft | 350 kts | 13° |
| 2026-05-06 16:31 | 52.51459 | 10.00052 | 18845 ft | 348 kts | 13° |
| 2026-05-06 16:32 | 52.53795 | 10.01088 | 18465 ft | 348 kts | 13° |
| 2026-05-06 16:32 | 52.56100 | 10.02111 | 18104 ft | 348 kts | 13° |
| 2026-05-06 16:32 | 52.58437 | 10.03148 | 17697 ft | 348 kts | 13° |
| 2026-05-06 16:32 | 52.60774 | 10.04191 | 17290 ft | 349 kts | 13° |
| 2026-05-06 16:33 | 52.63117 | 10.05244 | 16902 ft | 349 kts | 13° |
| 2026-05-06 16:33 | 52.65460 | 10.06297 | 16547 ft | 349 kts | 13° |
| 2026-05-06 16:33 | 52.67800 | 10.07347 | 16180 ft | 349 kts | 13° |
| 2026-05-06 16:34 | 52.72484 | 10.09446 | 15480 ft | 348 kts | 13° |
| 2026-05-06 16:34 | 52.74835 | 10.10369 | 15129 ft | 347 kts | 9° |
| 2026-05-06 16:34 | 52.77160 | 10.11159 | 14788 ft | 346 kts | 9° |
| 2026-05-06 16:34 | 52.79525 | 10.11894 | 14445 ft | 344 kts | 6° |
| 2026-05-06 16:35 | 52.81896 | 10.12413 | 14099 ft | 343 kts | 4° |
| 2026-05-06 16:35 | 52.84268 | 10.12740 | 13781 ft | 342 kts | 1° |
| 2026-05-06 16:35 | 52.86644 | 10.12833 | 13433 ft | 341 kts | 359° |
| 2026-05-06 16:35 | 52.89012 | 10.12855 | 13062 ft | 340 kts | 359° |
| 2026-05-06 16:36 | 52.91382 | 10.12846 | 12700 ft | 340 kts | 359° |
| 2026-05-06 16:36 | 52.93740 | 10.12829 | 12339 ft | 339 kts | 359° |
| 2026-05-06 16:36 | 52.96096 | 10.12804 | 11977 ft | 339 kts | 359° |
| 2026-05-06 16:36 | 52.98415 | 10.12767 | 11625 ft | 338 kts | 359° |
| 2026-05-06 16:37 | 53.00769 | 10.12698 | 11276 ft | 338 kts | 358° |
| 2026-05-06 16:37 | 53.03109 | 10.12426 | 10929 ft | 336 kts | 355° |
| 2026-05-06 16:37 | 53.05437 | 10.12045 | 10588 ft | 336 kts | 354° |
| 2026-05-06 16:37 | 53.07745 | 10.11642 | 10255 ft | 334 kts | 354° |
| 2026-05-06 16:38 | 53.10046 | 10.11223 | 9916 ft | 332 kts | 354° |
| 2026-05-06 16:38 | 53.12303 | 10.10794 | 9576 ft | 329 kts | 354° |
| 2026-05-06 16:38 | 53.14567 | 10.10352 | 9210 ft | 325 kts | 354° |
| 2026-05-06 16:38 | 53.16804 | 10.09907 | 8839 ft | 324 kts | 354° |
| 2026-05-06 16:39 | 53.19026 | 10.09436 | 8479 ft | 322 kts | 354° |
| 2026-05-06 16:39 | 53.21235 | 10.08949 | 8135 ft | 318 kts | 354° |
| 2026-05-06 16:39 | 53.23398 | 10.08171 | 7866 ft | 318 kts | 346° |
| 2026-05-06 16:39 | 53.25506 | 10.07114 | 7810 ft | 317 kts | 345° |
| 2026-05-06 16:40 | 53.27574 | 10.05833 | 7814 ft | 318 kts | 337° |
| 2026-05-06 16:40 | 53.29564 | 10.04179 | 7828 ft | 321 kts | 334° |
| 2026-05-06 16:40 | 53.31530 | 10.02447 | 7621 ft | 315 kts | 334° |
| 2026-05-06 16:40 | 53.33418 | 10.00663 | 6952 ft | 309 kts | 328° |
| 2026-05-06 16:41 | 53.35073 | 9.98477 | 6505 ft | 298 kts | 320° |
| 2026-05-06 16:41 | 53.36573 | 9.96194 | 6108 ft | 284 kts | 319° |
| 2026-05-06 16:41 | 53.37995 | 9.94076 | 5682 ft | 272 kts | 324° |
| 2026-05-06 16:41 | 53.39500 | 9.92229 | 5115 ft | 266 kts | 328° |
| 2026-05-06 16:42 | 53.40999 | 9.90444 | 4494 ft | 263 kts | 328° |
| 2026-05-06 16:42 | 53.42478 | 9.88680 | 4197 ft | 257 kts | 328° |
| 2026-05-06 16:42 | 53.43892 | 9.86989 | 3981 ft | 244 kts | 328° |
| 2026-05-06 16:42 | 53.45233 | 9.85380 | 3779 ft | 231 kts | 328° |
| 2026-05-06 16:43 | 53.46516 | 9.83850 | 3534 ft | 222 kts | 329° |
| 2026-05-06 16:43 | 53.47761 | 9.82368 | 3279 ft | 215 kts | 329° |
| 2026-05-06 16:43 | 53.48932 | 9.80967 | 3114 ft | 200 kts | 330° |
| 2026-05-06 16:43 | 53.50036 | 9.79636 | 2891 ft | 192 kts | 329° |
| 2026-05-06 16:44 | 53.51107 | 9.78362 | 2629 ft | 185 kts | 332° |
| 2026-05-06 16:44 | 53.52243 | 9.77596 | 2428 ft | 169 kts | 352° |
| 2026-05-06 16:44 | 53.53254 | 9.76763 | 2318 ft | 160 kts | 324° |
| 2026-05-06 16:44 | 53.53802 | 9.75140 | 2298 ft | 171 kts | 285° |
| 2026-05-06 16:45 | 53.53759 | 9.72952 | 2447 ft | 202 kts | 263° |
| 2026-05-06 16:45 | 53.53543 | 9.70613 | 2786 ft | 201 kts | 262° |
| 2026-05-06 16:45 | 53.53325 | 9.68314 | 2945 ft | 199 kts | 261° |
| 2026-05-06 16:45 | 53.53078 | 9.66000 | 3018 ft | 204 kts | 261° |
| 2026-05-06 16:46 | 53.52680 | 9.63716 | 3227 ft | 205 kts | 235° |
| 2026-05-06 16:46 | 53.51558 | 9.62375 | 3399 ft | 201 kts | 188° |
| 2026-05-06 16:46 | 53.50280 | 9.62880 | 3152 ft | 190 kts | 136° |
| 2026-05-06 16:46 | 53.49603 | 9.64659 | 2895 ft | 182 kts | 110° |
| 2026-05-06 16:47 | 53.49096 | 9.66554 | 2813 ft | 166 kts | 106° |
| 2026-05-06 16:47 | 53.48998 | 9.68283 | 2736 ft | 142 kts | 86° |
| 2026-05-06 16:47 | 53.48987 | 9.69906 | 2446 ft | 135 kts | 76° |
| 2026-05-06 16:47 | 53.49344 | 9.71343 | 2216 ft | 134 kts | 56° |
| 2026-05-06 16:48 | 53.49956 | 9.72519 | 1953 ft | 134 kts | 49° |
| 2026-05-06 16:48 | 53.50611 | 9.73779 | 2162 ft | 155 kts | 50° |
| 2026-05-06 16:48 | 53.51270 | 9.75085 | 2171 ft | 144 kts | 52° |
| 2026-05-06 16:48 | 53.51913 | 9.76375 | 2175 ft | 143 kts | 51° |
| 2026-05-06 16:49 | 53.52555 | 9.77667 | 2172 ft | 144 kts | 51° |
| 2026-05-06 16:49 | 53.53199 | 9.78964 | 2172 ft | 146 kts | 51° |
| 2026-05-06 16:49 | 53.53848 | 9.80273 | 2184 ft | 145 kts | 51° |
| 2026-05-06 16:49 | 53.54499 | 9.81583 | 2213 ft | 145 kts | 52° |
| 2026-05-06 16:50 | 53.55134 | 9.82865 | 2216 ft | 145 kts | 51° |
| 2026-05-06 16:50 | 53.55753 | 9.84111 | 2049 ft | 127 kts | 52° |
| 2026-05-06 16:50 | 53.56295 | 9.85206 | 1862 ft | 120 kts | 51° |
| 2026-05-06 16:50 | 53.56827 | 9.86281 | 1706 ft | 119 kts | 51° |
| 2026-05-06 16:51 | 53.57360 | 9.87355 | 1545 ft | 119 kts | 50° |
| 2026-05-06 16:51 | 53.57891 | 9.88433 | 1387 ft | 120 kts | 50° |
| 2026-05-06 16:51 | 53.58433 | 9.89525 | 1204 ft | 123 kts | 50° |
| 2026-05-06 16:51 | 53.58985 | 9.90635 | 1019 ft | 125 kts | 50° |
| 2026-05-06 16:52 | 53.59540 | 9.91754 | 849 ft | 123 kts | 50° |
| 2026-05-06 16:52 | 53.60094 | 9.92882 | 671 ft | 124 kts | 50° |
| 2026-05-06 16:52 | 53.60646 | 9.94001 | 475 ft | 130 kts | 49° |
| 2026-05-06 16:52 | 53.61237 | 9.95168 | 307 ft | 132 kts | 50° |
| 2026-05-06 16:53 | 53.61827 | 9.96368 | 142 ft | 133 kts | 50° |
| 2026-05-06 16:53 | 53.62333 | 9.97398 | 68 ft | 123 kts | 50° |
| 2026-05-06 16:53 | 53.62715 | 9.98165 | 48 ft | 108 kts | 52° |
| 2026-05-06 16:53 | 53.63010 | 9.98711 | 50 ft | 65 kts | 57° |
| 2026-05-06 16:54 | 53.63059 | 9.98897 | 51 ft | 8 kts | 70° |
| 2026-05-06 16:54 | 53.63086 | 9.99025 | 51 ft | 13 kts | 79° |
| 2026-05-06 16:54 | 53.63089 | 9.99190 | 52 ft | 14 kts | 100° |
| 2026-05-06 16:54 | 53.63088 | 9.99207 | 52 ft | 0 kts | 98° |
| 2026-05-06 16:55 | 53.63087 | 9.99208 | 52 ft | 1 kts | 98° |
| 2026-05-06 16:55 | 53.63084 | 9.99243 | 52 ft | 5 kts | 98° |
| 2026-05-06 16:55 | 53.63081 | 9.99314 | 52 ft | 7 kts | 84° |
| 2026-05-06 16:56 | 53.63101 | 9.99409 | 50 ft | 10 kts | 58° |
| 2026-05-06 16:56 | 53.63146 | 9.99516 | 52 ft | 12 kts | 52° |
| 2026-05-06 16:56 | 53.63201 | 9.99630 | 53 ft | 6 kts | 51° |
| 2026-05-06 16:56 | 53.63215 | 9.99659 | 54 ft | 0 kts | 56° |
| 2026-05-06 16:57 | 53.63215 | 9.99660 | 54 ft | 1 kts | 56° |
| 2026-05-06 16:57 | 53.63229 | 9.99687 | 54 ft | 6 kts | 46° |
| 2026-05-06 16:58 | 53.63267 | 9.99755 | 54 ft | 10 kts | 46° |
| 2026-05-06 16:58 | 53.63327 | 9.99859 | 54 ft | 14 kts | 46° |
| 2026-05-06 16:58 | 53.63395 | 9.99986 | 54 ft | 16 kts | 54° |
| 2026-05-06 16:58 | 53.63429 | 10.00103 | 54 ft | 8 kts | 112° |
| 2026-05-06 16:59 | 53.63370 | 10.00126 | 54 ft | 10 kts | 154° |
| 2026-05-06 16:59 | 53.63298 | 10.00179 | 54 ft | 13 kts | 171° |
| 2026-05-06 16:59 | 53.63241 | 10.00264 | 54 ft | 5 kts | 86° |
| 2026-05-06 16:59 | 53.63244 | 10.00329 | 54 ft | 4 kts | 88° |
| 2026-05-06 17:00 | 53.63244 | 10.00336 | 54 ft | 0 kts | 86° |
| 2026-05-06 17:00 | 53.63244 | 10.00342 | 54 ft | 0 kts | 86° |